Terminal Aerodrome Forecast
Issued by NWS

Home | Current Version | Previous Version | Text Only | Print | Product List | Glossary On
Versions: 1 2 3 4 5 6 7 8 9 10 11 12 13 14 15 16 17 18 19 20 21 22 23 24 25 26 27 28
000
FTUS45 KBOI 182333
TAFMYL
TAF
KMYL 182333Z 1900/1924 VRB04KT 1SM -SN BR BKN005 OVC010
     FM190600 16007KT 1/2SM -SN FG OVC015=

USA.gov is the U.S. government's official web portal to all federal, state and local government web resources and services.